createdAt,value
2019-02-08T00:05:33.808Z,43.83
2019-02-08T00:20:38.982Z,43.00
2019-02-08T00:35:43.501Z,46.23
2019-02-08T00:50:48.403Z,44.67
2019-02-08T01:05:53.633Z,47.47
2019-02-08T01:21:12.750Z,42.47
2019-02-08T01:36:19.034Z,46.00
2019-02-08T01:51:23.831Z,46.30
2019-02-08T02:06:28.859Z,45.20
2019-02-08T02:21:46.038Z,44.40
2019-02-08T02:36:51.056Z,46.27
2019-02-08T02:51:55.810Z,45.37
2019-02-08T03:07:00.630Z,45.10
2019-02-08T03:22:05.339Z,46.27
2019-02-08T03:37:21.825Z,43.90
2019-02-08T03:52:26.589Z,47.27
2019-02-08T04:07:31.109Z,41.17
2019-02-08T04:22:35.658Z,42.47
2019-02-08T04:37:40.553Z,39.73
2019-02-08T04:52:57.987Z,39.33
2019-02-08T05:08:02.948Z,39.10
2019-02-08T05:23:07.757Z,41.67
2019-02-08T05:38:12.556Z,57.50
2019-02-08T05:53:17.238Z,42.27
2019-02-08T06:08:21.897Z,50.17
2019-02-08T06:23:26.347Z,54.77
2019-02-08T06:38:43.550Z,51.23
2019-02-08T06:53:48.086Z,54.50
2019-02-08T07:08:54.612Z,48.33
2019-02-08T07:24:00.698Z,45.13
2019-02-08T07:39:10.166Z,41.80
2019-02-08T07:54:16.326Z,39.43
2019-02-08T08:09:46.357Z,32.77
2019-02-08T08:24:54.455Z,35.00
2019-02-08T08:40:25.147Z,31.10
2019-02-08T08:55:41.979Z,28.83
2019-02-08T09:11:03.399Z,25.67
2019-02-08T09:26:22.161Z,25.47
2019-02-08T09:41:38.669Z,24.37
2019-02-08T09:56:46.686Z,23.60
2019-02-08T10:11:54.607Z,21.67
2019-02-08T10:27:03.023Z,22.13
2019-02-08T10:42:13.664Z,21.93
2019-02-08T10:57:21.606Z,21.63
2019-02-08T11:27:45.918Z,19.80
2019-02-08T11:42:50.642Z,19.57
2019-02-08T11:57:55.959Z,18.70
2019-02-08T12:13:00.849Z,17.63
2019-02-08T12:28:05.681Z,17.63
2019-02-08T12:43:10.059Z,17.10
2019-02-08T12:58:14.554Z,18.27
2019-02-08T13:13:19.503Z,23.50
2019-02-08T13:28:24.028Z,23.33
2019-02-08T13:43:28.862Z,27.30
2019-02-08T13:58:34.184Z,29.57
2019-02-08T14:13:40.696Z,28.37
2019-02-08T14:28:47.812Z,35.93
2019-02-08T14:43:57.474Z,31.10
2019-02-08T14:59:03.323Z,31.17
2019-02-08T15:14:08.172Z,31.10
2019-02-08T15:29:12.633Z,27.17
2019-02-08T15:44:36.658Z,35.37
2019-02-08T15:59:41.911Z,58.90
2019-02-08T16:14:46.432Z,30.17
2019-02-08T16:29:51.131Z,40.33
2019-02-08T16:44:55.976Z,41.63
2019-02-08T17:00:01.226Z,42.23
2019-02-08T17:15:09.114Z,43.53
2019-02-08T17:30:16.607Z,38.37
2019-02-08T17:45:21.449Z,37.63
2019-02-08T18:00:30.863Z,43.90
2019-02-08T18:15:35.620Z,80.27
2019-02-08T18:31:07.272Z,36.97
2019-02-08T18:46:12.337Z,39.60
2019-02-08T19:01:37.391Z,36.80
2019-02-08T19:16:54.586Z,39.30
2019-02-08T19:31:59.509Z,40.23
2019-02-08T19:47:24.279Z,39.73
2019-02-08T20:02:29.100Z,39.13
2019-02-08T20:17:33.633Z,38.83
2019-02-08T20:32:38.757Z,34.17
2019-02-08T20:47:45.028Z,36.17
2019-02-08T21:02:49.902Z,39.80
2019-02-08T21:17:56.730Z,44.17
2019-02-08T21:33:15.967Z,42.73
2019-02-08T21:48:21.590Z,40.10
2019-02-08T22:03:26.831Z,45.30
2019-02-08T22:18:31.792Z,43.93
2019-02-08T22:33:36.634Z,40.50
2019-02-08T22:48:41.511Z,38.03
2019-02-08T23:03:46.745Z,36.00
2019-02-08T23:18:51.392Z,41.83
2019-02-08T23:33:56.274Z,41.23
2019-02-08T23:49:01.056Z,39.30
